Time;durP1;ratioP1;P1;durP2;ratioP2;P2;SDS_P1;SDS_P2;PMS_P1;PMS_P2;Temp;Humidity;BMP_temperature;BMP_pressure;BME280_temperature;BME280_humidity;BME280_pressure;Samples;Min_cycle;Max_cycle;Signal;HPM_P1;HPM_P2
2021/12/06 00:01:44;;;;;;;20.00;8.05;;;;;;;7.48;74.38;101424.64;1870212;77;21575;-62
2021/12/06 00:04:19;;;;;;;20.55;8.08;;;;;;;7.47;74.37;101430.34;1870225;77;21043;-62
2021/12/06 00:06:51;;;;;;;22.00;8.85;;;;;;;7.50;74.38;101426.79;1870115;77;21129;-63
2021/12/06 00:09:22;;;;;;;20.88;8.85;;;;;;;7.51;74.35;101424.16;1870185;77;21103;-61
2021/12/06 00:11:56;;;;;;;18.85;7.80;;;;;;;7.54;74.26;101427.16;1870245;77;21473;-61
2021/12/06 00:14:27;;;;;;;19.50;7.55;;;;;;;7.54;74.22;101425.84;1870323;76;21011;-61
2021/12/06 00:16:52;;;;;;;18.00;7.25;;;;;;;7.54;74.25;101435.02;1870374;76;21105;-62
2021/12/06 00:19:20;;;;;;;21.12;8.00;;;;;;;7.56;74.27;101434.55;1870079;77;21031;-65
2021/12/06 00:21:50;;;;;;;16.10;7.60;;;;;;;7.57;74.27;101438.91;1870229;77;21040;-65
2021/12/06 00:24:19;;;;;;;18.45;7.58;;;;;;;7.57;74.25;101440.23;1870259;77;21423;-64
2021/12/06 00:26:49;;;;;;;22.17;8.45;;;;;;;7.58;74.25;101452.88;1870378;77;21062;-65
2021/12/06 00:29:18;;;;;;;17.02;7.10;;;;;;;7.60;74.27;101453.30;1870329;76;21011;-64
2021/12/06 00:31:47;;;;;;;19.20;8.55;;;;;;;7.61;74.30;101452.39;1870303;77;21039;-61
2021/12/06 00:34:18;;;;;;;20.70;8.45;;;;;;;7.63;74.25;101449.30;1870201;77;21035;-60
2021/12/06 00:36:55;;;;;;;18.35;8.15;;;;;;;7.63;74.25;101447.98;1870215;75;21058;-62
2021/12/06 00:39:24;;;;;;;18.70;7.28;;;;;;;7.63;74.25;101446.67;1870214;75;21501;-61
2021/12/06 00:41:52;;;;;;;18.50;7.45;;;;;;;7.64;74.24;101448.42;1870228;77;21107;-63
2021/12/06 00:44:22;;;;;;;17.10;7.80;;;;;;;7.64;74.31;101443.17;1870142;77;21567;-66
2021/12/06 00:46:52;;;;;;;17.48;7.40;;;;;;;7.64;74.34;101439.70;1870186;76;21062;-67
2021/12/06 00:49:21;;;;;;;23.15;7.83;;;;;;;7.64;74.32;101439.24;1895881;75;21003;-64
2021/12/06 00:51:50;;;;;;;17.95;8.03;;;;;;;7.62;74.34;101437.09;1902637;74;21466;-67
2021/12/06 00:54:19;;;;;;;16.37;6.85;;;;;;;7.61;74.39;101436.66;1902735;74;21454;-67
2021/12/06 00:56:48;;;;;;;17.65;6.85;;;;;;;7.63;74.38;101437.95;1902423;75;21563;-65
2021/12/06 00:59:18;;;;;;;18.10;7.83;;;;;;;7.63;74.35;101442.73;1902844;75;21051;-70
2021/12/06 01:01:47;;;;;;;16.90;6.85;;;;;;;7.64;74.31;101444.48;1902558;75;21023;-69
2021/12/06 01:04:16;;;;;;;20.08;8.00;;;;;;;7.66;74.26;101445.78;1902569;74;21540;-65
2021/12/06 01:06:45;;;;;;;19.60;8.28;;;;;;;7.65;74.22;101447.52;1883090;75;21027;-68
2021/12/06 01:09:14;;;;;;;17.95;7.72;;;;;;;7.65;74.23;101440.95;1902590;75;21149;-66
2021/12/06 01:11:43;;;;;;;18.23;8.03;;;;;;;7.66;74.24;101428.28;1902533;75;21061;-66
2021/12/06 01:14:12;;;;;;;14.73;6.20;;;;;;;7.63;74.28;101424.84;1902483;75;21043;-68
2021/12/06 01:16:41;;;;;;;16.67;7.20;;;;;;;7.56;74.41;101415.34;1902621;75;21461;-68
2021/12/06 01:19:10;;;;;;;18.17;7.55;;;;;;;7.48;74.64;101419.40;1902601;74;21478;-65
2021/12/06 01:21:56;;;;;;;19.87;7.08;;;;;;;7.47;74.65;101417.23;1902502;75;21062;-66
2021/12/06 01:24:25;;;;;;;14.33;5.92;;;;;;;7.47;74.62;101422.48;1902771;75;21035;-68
2021/12/06 01:27:11;;;;;;;17.60;6.87;;;;;;;7.46;74.63;101425.11;1902790;75;21097;-66
2021/12/06 01:32:14;;;;;;;18.80;7.58;;;;;;;7.42;74.66;101432.61;1902557;75;21514;-68
2021/12/06 01:40:11;;;;;;;15.65;7.12;;;;;;;7.42;74.74;101419.50;1902570;75;21043;-65
2021/12/06 01:42:39;;;;;;;19.45;6.55;;;;;;;7.42;74.76;101423.44;1902423;74;21093;-66
2021/12/06 01:45:09;;;;;;;17.90;7.55;;;;;;;7.40;74.87;101425.22;1902711;75;21438;-64
2021/12/06 01:47:41;;;;;;;17.87;7.25;;;;;;;7.35;75.16;101426.58;1902748;74;21084;-62
2021/12/06 01:50:24;;;;;;;20.00;7.75;;;;;;;7.35;75.16;101414.34;1905038;75;21144;-61
2021/12/06 01:52:56;;;;;;;20.23;7.65;;;;;;;7.33;75.20;101416.12;1905233;74;21127;-62
2021/12/06 01:55:32;;;;;;;19.07;7.37;;;;;;;7.30;75.36;101414.88;1905511;74;21110;-67
2021/12/06 01:58:04;;;;;;;18.90;7.22;;;;;;;7.28;75.37;101417.93;1905754;74;21155;-65
2021/12/06 02:00:36;;;;;;;18.32;7.00;;;;;;;7.26;75.46;101423.64;1905845;74;21037;-66
2021/12/06 02:03:08;;;;;;;19.05;8.88;;;;;;;7.24;75.50;101422.80;1903383;74;21120;-65
2021/12/06 02:05:40;;;;;;;27.42;8.35;;;;;;;7.20;75.70;101421.58;1905397;74;21594;-63
2021/12/06 02:08:10;;;;;;;18.50;6.53;;;;;;;7.20;75.72;101418.95;1905789;75;21065;-64
2021/12/06 02:10:41;;;;;;;21.55;8.05;;;;;;;7.24;75.56;101422.80;1905730;75;21554;-62
2021/12/06 02:13:12;;;;;;;22.98;8.43;;;;;;;7.25;75.48;101415.38;1905354;75;21138;-62
2021/12/06 02:15:47;;;;;;;18.80;7.10;;;;;;;7.24;75.37;101420.18;1905809;75;21077;-67
2021/12/06 02:18:28;;;;;;;23.42;8.18;;;;;;;7.24;75.36;101425.42;1904928;74;21046;-68
2021/12/06 02:20:57;;;;;;;17.00;6.72;;;;;;;7.25;75.35;101421.92;1903112;75;21174;-63
2021/12/06 02:23:18;;;;;;;20.72;7.53;;;;;;;7.24;75.31;101421.48;1903576;75;21046;-62
2021/12/06 02:25:47;;;;;;;20.60;7.50;;;;;;;7.25;75.37;101424.55;1905683;75;21108;-62
2021/12/06 02:28:16;;;;;;;21.55;8.68;;;;;;;7.21;75.46;101422.86;1905651;75;21050;-63
2021/12/06 02:30:45;;;;;;;20.77;7.85;;;;;;;7.21;75.54;101426.80;1905555;75;21097;-66
2021/12/06 02:33:14;;;;;;;23.80;8.50;;;;;;;7.18;75.60;101425.52;1906028;74;21095;-62
2021/12/06 02:35:43;;;;;;;21.20;8.78;;;;;;;7.16;75.65;101422.06;1894869;74;21088;-61
2021/12/06 02:38:12;;;;;;;21.97;8.68;;;;;;;7.12;75.85;101415.14;1880995;75;21407;-63
2021/12/06 02:40:42;;;;;;;23.45;9.33;;;;;;;7.05;76.17;101414.34;1861407;75;21041;-61
2021/12/06 02:43:12;;;;;;;22.32;8.88;;;;;;;7.00;76.32;101413.98;1873450;75;21030;-62
2021/12/06 02:45:43;;;;;;;22.52;8.15;;;;;;;6.98;76.50;101411.83;1905873;75;21022;-62
2021/12/06 02:48:13;;;;;;;22.52;7.58;;;;;;;6.94;76.65;101411.01;1905835;75;21160;-61
2021/12/06 02:50:54;;;;;;;23.77;8.10;;;;;;;6.94;76.66;101409.25;1905877;75;21057;-62
2021/12/06 02:53:25;;;;;;;21.10;8.20;;;;;;;6.94;76.75;101407.94;1905799;75;21139;-61
2021/12/06 02:55:59;;;;;;;22.02;8.20;;;;;;;6.95;76.67;101410.99;1903927;75;21106;-62
2021/12/06 03:01:10;;;;;;;25.43;9.78;;;;;;;6.91;76.76;101402.73;1902771;75;21027;-62
2021/12/06 03:03:41;;;;;;;23.77;9.00;;;;;;;6.88;76.70;101406.72;1903046;74;21563;-62
2021/12/06 03:06:11;;;;;;;24.12;8.53;;;;;;;6.85;76.67;101405.89;1902549;75;21055;-63
2021/12/06 03:08:48;;;;;;;30.05;12.03;;;;;;;6.77;76.74;101408.61;1902744;75;21027;-63
2021/12/06 03:11:20;;;;;;;24.72;9.05;;;;;;;6.72;76.84;101413.89;1902661;75;21027;-63
2021/12/06 03:13:50;;;;;;;27.67;10.32;;;;;;;6.73;76.84;101423.91;1901799;74;21133;-63
2021/12/06 03:16:20;;;;;;;27.05;9.45;;;;;;;6.71;77.16;101424.38;1902730;75;21031;-63
2021/12/06 03:19:10;;;;;;;32.45;10.45;;;;;;;6.75;77.12;101424.75;1902578;74;21852;-63
2021/12/06 03:21:40;;;;;;;27.30;9.90;;;;;;;6.79;77.04;101423.85;1852410;77;21027;-63
2021/12/06 03:24:10;;;;;;;25.40;9.25;;;;;;;6.82;76.95;101430.78;1852480;76;21019;-63
2021/12/06 03:26:40;;;;;;;23.98;8.93;;;;;;;6.84;76.96;101432.94;1852470;77;21035;-63
2021/12/06 03:29:11;;;;;;;26.17;10.32;;;;;;;6.87;76.87;101433.77;1852286;76;21143;-63
2021/12/06 03:31:41;;;;;;;25.72;10.58;;;;;;;6.90;76.89;101435.50;1852416;77;21039;-63
2021/12/06 03:34:10;;;;;;;26.15;11.65;;;;;;;6.93;76.91;101438.06;1852458;77;21039;-63
2021/12/06 03:36:41;;;;;;;26.37;9.63;;;;;;;6.98;76.79;101443.25;1852387;77;21063;-63
2021/12/06 03:39:12;;;;;;;22.75;8.50;;;;;;;7.01;76.74;101438.84;1852343;77;21120;-63
2021/12/06 03:41:42;;;;;;;25.30;8.48;;;;;;;7.00;76.79;101436.23;1852233;77;21197;-62
2021/12/06 03:44:10;;;;;;;26.25;9.13;;;;;;;7.01;76.75;101428.79;1852388;77;21043;-63
2021/12/06 03:46:41;;;;;;;28.65;9.38;;;;;;;7.01;76.71;101435.34;1852456;77;21498;-61
2021/12/06 03:49:15;;;;;;;25.45;8.38;;;;;;;7.02;76.66;101434.47;1852455;77;21078;-61
2021/12/06 03:51:44;;;;;;;;;;;;;;;6.98;76.88;101438.02;1855174;77;21031;-61
2021/12/06 03:54:16;;;;;;;23.75;8.30;;;;;;;6.95;76.92;101435.86;1852388;77;20429;-62
2021/12/06 03:56:46;;;;;;;23.97;7.90;;;;;;;6.90;76.95;101441.59;1852591;77;21055;-62
2021/12/06 03:59:16;;;;;;;23.02;8.55;;;;;;;6.84;77.09;101432.52;1852373;77;21063;-62
2021/12/06 04:01:47;;;;;;;27.32;9.53;;;;;;;6.82;77.07;101431.64;1852348;77;21036;-61
2021/12/06 04:04:18;;;;;;;28.65;10.30;;;;;;;6.80;77.21;101433.42;1851910;76;21103;-61
2021/12/06 04:06:47;;;;;;;24.52;11.28;;;;;;;6.80;77.20;101430.80;1852242;77;21474;-61
2021/12/06 04:09:17;;;;;;;24.43;8.95;;;;;;;6.79;77.22;101433.43;1852442;77;21155;-62
2021/12/06 04:11:46;;;;;;;26.10;9.35;;;;;;;6.80;77.20;101433.42;1852564;77;21526;-62
2021/12/06 04:14:16;;;;;;;30.82;10.30;;;;;;;6.78;77.22;101436.50;1852499;77;21528;-61
2021/12/06 04:16:45;;;;;;;26.52;9.93;;;;;;;6.77;77.37;101434.78;1852365;77;21059;-62
2021/12/06 04:19:16;;;;;;;29.23;9.70;;;;;;;6.81;77.20;101444.33;1852475;77;21130;-61
2021/12/06 04:21:47;;;;;;;29.07;9.58;;;;;;;6.85;77.07;101440.78;1850231;77;21079;-62
2021/12/06 04:24:17;;;;;;;27.50;9.43;;;;;;;6.89;76.95;101449.47;1849668;77;21186;-62
2021/12/06 04:26:47;;;;;;;28.85;10.20;;;;;;;6.90;76.88;101462.54;1849734;77;21012;-62
2021/12/06 04:29:16;;;;;;;28.17;9.33;;;;;;;6.92;76.84;101462.08;1849771;76;21446;-62
2021/12/06 04:31:52;;;;;;;33.18;10.13;;;;;;;6.94;76.77;101464.68;1860214;76;21508;-62
2021/12/06 04:34:22;;;;;;;27.42;9.63;;;;;;;6.90;76.74;101463.84;1881473;75;21134;-62
2021/12/06 04:36:51;;;;;;;27.70;9.88;;;;;;;6.87;76.69;101462.56;1881327;76;21490;-62
2021/12/06 04:39:22;;;;;;;28.42;9.05;;;;;;;6.87;76.70;101466.95;1881500;76;21004;-62
2021/12/06 04:41:52;;;;;;;23.95;8.13;;;;;;;6.85;76.72;101463.48;1881327;76;21099;-61
2021/12/06 04:44:21;;;;;;;32.45;10.15;;;;;;;6.83;76.72;101462.64;1881174;76;21481;-62
2021/12/06 04:46:50;;;;;;;30.80;10.85;;;;;;;6.80;76.75;101468.75;1881528;76;21470;-62
2021/12/06 04:49:21;;;;;;;36.98;10.93;;;;;;;6.80;76.80;101480.98;1881518;75;21031;-61
2021/12/06 04:51:52;;;;;;;38.70;10.32;;;;;;;6.81;76.84;101475.73;1881441;76;21027;-62
2021/12/06 04:54:24;;;;;;;35.78;10.55;;;;;;;6.83;76.83;101482.27;1881448;75;21100;-62
2021/12/06 04:56:56;;;;;;;33.90;9.45;;;;;;;6.83;76.82;101483.12;1881241;76;21142;-61
2021/12/06 04:59:27;;;;;;;31.62;11.20;;;;;;;6.83;76.80;101479.20;1881310;75;21036;-62
2021/12/06 05:02:00;;;;;;;33.10;10.78;;;;;;;6.85;76.83;101483.11;1881471;76;21097;-61
2021/12/06 05:04:32;;;;;;;31.45;11.00;;;;;;;6.84;76.87;101487.91;1881298;76;21055;-62
2021/12/06 05:07:03;;;;;;;28.00;9.38;;;;;;;6.84;76.87;101494.04;1881430;76;21036;-62
2021/12/06 05:09:35;;;;;;;31.70;11.75;;;;;;;6.85;76.85;101502.30;1881191;75;21184;-61
2021/12/06 05:12:06;;;;;;;37.63;10.98;;;;;;;6.84;76.95;101505.82;1881365;76;21470;-61
2021/12/06 05:14:36;;;;;;;31.27;10.75;;;;;;;6.84;77.12;101511.05;1881295;76;21075;-61
2021/12/06 05:17:05;;;;;;;50.30;11.97;;;;;;;6.87;77.09;101507.07;1881358;76;21524;-61
2021/12/06 05:19:34;;;;;;;32.13;9.90;;;;;;;6.89;77.03;101503.98;1881279;76;21462;-63
2021/12/06 05:22:03;;;;;;;37.20;12.43;;;;;;;6.92;76.97;101501.34;1883002;75;21489;-62
2021/12/06 05:24:31;;;;;;;39.73;12.75;;;;;;;6.93;76.91;101506.12;1883758;76;21090;-62
2021/12/06 05:27:01;;;;;;;44.90;14.43;;;;;;;6.91;76.96;101508.77;1883920;76;21121;-62
2021/12/06 05:29:30;;;;;;;34.15;12.07;;;;;;;6.91;77.10;101503.98;1883889;76;21027;-61
2021/12/06 05:32:00;;;;;;;38.38;12.70;;;;;;;6.95;77.08;101507.87;1870420;76;21081;-61
2021/12/06 05:34:39;;;;;;;38.63;12.10;;;;;;;6.98;76.99;101508.71;1852243;77;21094;-60
2021/12/06 05:37:11;;;;;;;44.45;14.50;;;;;;;7.02;76.97;101506.47;1852311;77;21043;-61
2021/12/06 05:39:40;;;;;;;42.98;13.65;;;;;;;7.04;76.99;101504.70;1852316;77;21023;-61
2021/12/06 05:42:11;;;;;;;37.13;12.47;;;;;;;7.07;76.99;101503.36;1852300;77;21415;-61
2021/12/06 05:44:41;;;;;;;46.15;14.20;;;;;;;7.08;76.95;101507.28;1852123;76;21551;-61
2021/12/06 05:47:10;;;;;;;45.23;12.53;;;;;;;7.05;76.97;101505.14;1852265;77;21129;-62
2021/12/06 05:49:39;;;;;;;41.20;13.62;;;;;;;7.09;77.02;101513.38;1852320;77;21490;-62
2021/12/06 05:52:08;;;;;;;45.03;14.05;;;;;;;7.11;77.15;101520.77;1852298;77;21474;-62
2021/12/06 05:54:37;;;;;;;44.00;13.18;;;;;;;7.13;77.11;101522.47;1852392;77;21129;-61
2021/12/06 05:57:08;;;;;;;37.10;12.50;;;;;;;7.18;77.08;101522.88;1852225;77;21055;-62
2021/12/06 05:59:37;;;;;;;39.33;12.88;;;;;;;7.17;77.10;101521.98;1852414;77;21036;-61
2021/12/06 06:02:07;;;;;;;37.90;12.13;;;;;;;7.16;77.10;101516.34;1852387;77;21020;-60
2021/12/06 06:04:35;;;;;;;41.10;12.65;;;;;;;7.12;77.20;101515.97;1852363;77;21019;-61
2021/12/06 06:07:05;;;;;;;33.48;9.33;;;;;;;7.09;77.29;101502.45;1852297;77;21075;-60
2021/12/06 06:09:34;;;;;;;33.23;12.23;;;;;;;7.11;77.35;101501.13;1852375;77;21540;-61
2021/12/06 06:12:04;;;;;;;43.45;12.18;;;;;;;7.12;77.41;101507.66;1852280;77;21039;-62
2021/12/06 06:14:34;;;;;;;42.83;13.32;;;;;;;7.13;77.54;101501.97;1852394;77;21082;-62
2021/12/06 06:17:12;;;;;;;47.50;13.72;;;;;;;7.16;77.55;101498.02;1852298;77;21082;-62
2021/12/06 06:19:42;;;;;;;43.60;14.05;;;;;;;7.08;77.82;101491.98;1852178;76;21587;-62
2021/12/06 06:22:12;;;;;;;45.38;14.18;;;;;;;7.01;78.00;101504.73;1850505;77;21537;-62
2021/12/06 06:24:41;;;;;;;44.90;12.55;;;;;;;7.03;78.17;101531.79;1852243;77;21141;-62
2021/12/06 06:27:10;;;;;;;36.30;10.20;;;;;;;7.20;78.00;101537.67;1852277;77;21129;-63
2021/12/06 06:29:39;;;;;;;30.40;9.33;;;;;;;7.37;77.79;101539.22;1852440;77;21035;-62
2021/12/06 06:32:09;;;;;;;26.37;8.55;;;;;;;7.46;77.57;101526.86;1852291;77;21481;-62
2021/12/06 06:34:37;;;;;;;25.48;7.78;;;;;;;7.56;77.35;101523.66;1852361;77;21039;-63
2021/12/06 06:37:06;;;;;;;28.57;8.28;;;;;;;7.61;77.19;101532.33;1852303;77;21051;-63
2021/12/06 06:39:35;;;;;;;24.80;8.58;;;;;;;7.69;77.10;101546.21;1852291;77;21543;-62
2021/12/06 06:42:04;;;;;;;21.73;8.43;;;;;;;7.80;76.89;101558.28;1852390;77;21047;-63
2021/12/06 06:44:33;;;;;;;26.37;8.10;;;;;;;7.86;76.72;101564.77;1852359;77;21079;-62
2021/12/06 06:47:02;;;;;;;32.75;10.13;;;;;;;7.86;76.56;101566.08;1852280;77;21094;-63
2021/12/06 06:49:31;;;;;;;30.48;9.33;;;;;;;7.91;76.52;101560.30;1852310;77;21184;-63
2021/12/06 06:52:01;;;;;;;23.67;7.97;;;;;;;7.98;76.40;101559.77;1852353;77;21043;-62
2021/12/06 06:54:30;;;;;;;27.65;9.58;;;;;;;8.05;76.25;101550.92;1852390;77;21043;-63
2021/12/06 06:56:59;;;;;;;32.93;9.75;;;;;;;8.05;76.12;101537.36;1852315;77;21133;-62
2021/12/06 06:59:28;;;;;;;33.23;11.40;;;;;;;8.17;75.96;101540.67;1852377;77;21035;-62
2021/12/06 07:01:57;;;;;;;39.67;12.18;;;;;;;8.27;75.93;101543.58;1852164;77;21418;-62
2021/12/06 07:04:27;;;;;;;42.03;12.90;;;;;;;8.35;75.68;101543.44;1852267;77;21513;-62
2021/12/06 07:06:55;;;;;;;45.83;12.45;;;;;;;8.42;75.45;101549.05;1852255;77;21485;-62
2021/12/06 07:09:24;;;;;;;31.90;10.75;;;;;;;8.61;75.21;101547.84;1852290;77;21133;-62
2021/12/06 07:11:53;;;;;;;44.90;12.65;;;;;;;8.57;74.98;101547.91;1852296;77;21211;-62
2021/12/06 07:14:22;;;;;;;40.80;13.72;;;;;;;8.43;75.03;101558.20;1852165;77;21012;-61
2021/12/06 07:16:52;;;;;;;42.48;13.50;;;;;;;8.34;75.10;101563.58;1852283;77;21055;-61
2021/12/06 07:19:21;;;;;;;37.93;12.47;;;;;;;8.27;75.15;101567.19;1852278;77;21450;-61
2021/12/06 07:21:50;;;;;;;28.20;10.05;;;;;;;8.24;75.20;101564.61;1852261;77;21071;-62
2021/12/06 07:24:19;;;;;;;26.62;9.18;;;;;;;8.18;75.33;101551.59;1852352;77;21137;-62
2021/12/06 07:26:48;;;;;;;31.87;11.20;;;;;;;8.18;75.51;101558.16;1852188;76;21040;-62
2021/12/06 07:29:16;;;;;;;32.80;12.07;;;;;;;8.23;75.69;101558.95;1852373;77;21105;-61
2021/12/06 07:31:45;;;;;;;33.83;10.32;;;;;;;8.40;75.62;101564.78;1852257;77;21082;-60
2021/12/06 07:34:14;;;;;;;34.20;11.80;;;;;;;8.59;75.34;101562.72;1852281;77;21082;-62
2021/12/06 07:36:43;;;;;;;33.78;11.18;;;;;;;8.79;75.08;101563.69;1852255;77;21117;-62
2021/12/06 07:39:12;;;;;;;35.45;12.07;;;;;;;8.92;75.04;101575.28;1852295;77;21047;-62
2021/12/06 07:41:41;;;;;;;39.03;12.95;;;;;;;9.05;74.98;101580.72;1852282;77;21553;-61
2021/12/06 07:44:09;;;;;;;28.90;11.10;;;;;;;9.23;74.56;101572.93;1852222;77;21113;-62
2021/12/06 07:46:38;;;;;;;30.48;11.05;;;;;;;9.52;73.87;101569.70;1852243;77;21133;-61
2021/12/06 07:49:07;;;;;;;30.72;10.63;;;;;;;10.71;71.62;101565.13;1852260;77;21168;-61
2021/12/06 07:51:36;;;;;;;25.85;10.03;;;;;;;11.56;69.75;101551.77;1852284;77;21051;-62
2021/12/06 07:54:05;;;;;;;36.90;11.43;;;;;;;11.81;69.11;101549.69;1852267;77;21548;-61
2021/12/06 07:56:35;;;;;;;29.48;11.83;;;;;;;11.75;68.94;101543.30;1852372;77;21130;-61
2021/12/06 07:59:04;;;;;;;33.42;12.30;;;;;;;11.78;68.84;101541.86;1852290;77;21549;-61
2021/12/06 08:01:33;;;;;;;40.75;13.60;;;;;;;11.92;68.49;101534.41;1852233;77;21477;-62
2021/12/06 08:04:02;;;;;;;38.92;13.60;;;;;;;11.76;68.59;101534.45;1852228;76;21055;-62
2021/12/06 08:06:31;;;;;;;43.65;16.42;;;;;;;11.42;69.05;101538.13;1852178;77;21130;-62
2021/12/06 08:09:00;;;;;;;34.53;14.15;;;;;;;11.14;69.51;101538.05;1852255;77;21070;-62
2021/12/06 08:11:29;;;;;;;42.35;13.83;;;;;;;10.89;69.84;101545.34;1852233;77;21067;-61
2021/12/06 08:13:57;;;;;;;35.52;13.75;;;;;;;10.81;70.13;101536.33;1852228;77;21066;-61
2021/12/06 08:16:29;;;;;;;42.25;15.63;;;;;;;10.70;70.10;101529.64;1852243;77;21125;-61
2021/12/06 08:18:59;;;;;;;35.43;12.55;;;;;;;10.56;70.10;101529.98;1852142;77;21069;-62
2021/12/06 08:21:29;;;;;;;41.13;13.45;;;;;;;10.40;70.13;101530.40;1852240;77;21430;-61
2021/12/06 08:24:00;;;;;;;40.15;12.93;;;;;;;10.41;70.35;101531.25;1852199;77;21067;-62
2021/12/06 08:26:32;;;;;;;44.10;16.40;;;;;;;10.26;70.17;101523.27;1852327;77;21506;-61
2021/12/06 08:29:05;;;;;;;57.85;20.00;;;;;;;10.43;70.12;101516.28;1852225;77;21071;-61
2021/12/06 08:31:34;;;;;;;46.63;17.40;;;;;;;10.42;70.26;101519.38;1852243;77;21062;-62
2021/12/06 08:34:04;;;;;;;38.23;15.58;;;;;;;10.37;70.39;101525.66;1852216;77;21075;-61
2021/12/06 08:36:33;;;;;;;38.28;13.10;;;;;;;10.20;70.40;101528.70;1852266;77;21012;-61
2021/12/06 08:39:02;;;;;;;39.33;14.05;;;;;;;9.95;70.86;101531.05;1852336;77;21031;-61
2021/12/06 08:41:32;;;;;;;43.05;14.78;;;;;;;9.83;71.19;101528.23;1852256;77;21054;-61
2021/12/06 08:44:05;;;;;;;52.65;18.07;;;;;;;9.76;71.49;101513.52;1852280;77;21039;-61
2021/12/06 08:46:34;;;;;;;39.60;14.75;;;;;;;9.59;71.93;101501.63;1851092;76;21184;-61
2021/12/06 08:49:05;;;;;;;35.78;12.63;;;;;;;9.49;72.25;101499.23;1852161;77;21145;-61
2021/12/06 08:51:43;;;;;;;32.25;11.63;;;;;;;9.50;72.34;101504.46;1852233;77;21055;-61
2021/12/06 08:54:16;;;;;;;42.13;14.45;;;;;;;9.51;72.48;101506.17;1852235;77;21039;-61
2021/12/06 08:56:44;;;;;;;34.90;11.65;;;;;;;9.53;72.52;101507.46;1852129;76;21533;-61
2021/12/06 08:59:14;;;;;;;34.98;12.50;;;;;;;9.37;72.99;101509.13;1852217;77;21070;-61
2021/12/06 09:01:43;;;;;;;46.88;14.40;;;;;;;9.24;73.35;101500.64;1852235;77;21067;-61
2021/12/06 09:04:12;;;;;;;47.55;15.50;;;;;;;9.21;73.47;101486.23;1852253;77;21450;-61
2021/12/06 09:06:44;;;;;;;39.85;15.78;;;;;;;9.24;73.54;101484.87;1852188;77;21498;-61
2021/12/06 09:09:13;;;;;;;51.73;16.30;;;;;;;9.25;73.50;101487.89;1852125;77;21039;-61
2021/12/06 09:11:44;;;;;;;35.45;12.43;;;;;;;9.28;73.45;101493.09;1852218;77;21031;-60
2021/12/06 09:14:14;;;;;;;49.55;16.45;;;;;;;9.31;73.48;101497.87;1852404;77;21113;-61
2021/12/06 09:16:43;;;;;;;40.88;14.15;;;;;;;9.28;73.52;101499.66;1852318;77;21031;-61
2021/12/06 09:19:14;;;;;;;54.18;16.17;;;;;;;9.31;73.58;101491.30;1852203;77;21482;-62
2021/12/06 09:21:43;;;;;;;34.58;10.08;;;;;;;9.30;73.92;101490.90;1852342;77;21117;-61
2021/12/06 09:24:17;;;;;;;39.63;12.18;;;;;;;9.25;74.30;101480.47;1852098;77;21533;-62
2021/12/06 09:26:47;;;;;;;35.30;13.22;;;;;;;9.19;74.38;101484.09;1852175;77;21116;-62
2021/12/06 09:29:17;;;;;;;42.05;11.63;;;;;;;9.22;74.50;101489.30;1852203;77;21043;-62
2021/12/06 09:31:46;;;;;;;44.13;13.10;;;;;;;9.23;74.48;101483.12;1852295;77;21047;-61
2021/12/06 09:34:15;;;;;;;46.58;13.05;;;;;;;9.23;74.43;101473.92;1852113;77;21063;-61
2021/12/06 09:36:44;;;;;;;26.95;9.60;;;;;;;9.24;74.42;101474.36;1852230;77;21548;-61
2021/12/06 09:39:14;;;;;;;45.35;12.30;;;;;;;9.21;74.51;101470.47;1852440;77;21058;-61
2021/12/06 09:41:43;;;;;;;39.55;11.70;;;;;;;9.21;74.49;101469.16;1852244;77;21478;-61
2021/12/06 09:44:13;;;;;;;35.75;12.30;;;;;;;9.24;74.54;101465.16;1852401;77;21470;-61
2021/12/06 09:46:42;;;;;;;43.60;11.83;;;;;;;9.24;74.69;101466.47;1848713;77;21069;-62
2021/12/06 09:49:14;;;;;;;38.15;11.48;;;;;;;9.25;74.77;101465.56;1851352;77;21482;-62
2021/12/06 09:51:50;;;;;;;35.15;11.25;;;;;;;9.27;74.92;101469.02;1852213;77;21528;-62
2021/12/06 09:54:16;;;;;;;40.08;12.15;;;;;;;9.36;74.92;101474.98;1852022;76;21051;-62
2021/12/06 09:56:46;;;;;;;63.17;19.98;;;;;;;9.44;74.79;101478.29;1852178;77;21087;-62
2021/12/06 09:59:18;;;;;;;43.73;15.98;;;;;;;9.59;74.81;101480.59;1852064;77;21078;-62
2021/12/06 10:01:50;;;;;;;30.80;10.03;;;;;;;9.74;74.57;101477.16;1852171;77;21043;-62
2021/12/06 10:04:22;;;;;;;37.42;13.18;;;;;;;9.81;74.47;101466.91;1852361;77;21047;-62
2021/12/06 10:06:52;;;;;;;38.73;13.18;;;;;;;9.87;74.39;101464.16;1852064;77;21529;-62
2021/12/06 10:09:22;;;;;;;42.85;13.85;;;;;;;9.86;74.38;101457.16;1852132;77;21047;-63
2021/12/06 10:11:53;;;;;;;38.10;13.28;;;;;;;9.88;74.41;101461.92;1852158;77;21482;-62
2021/12/06 10:14:22;;;;;;;34.83;11.65;;;;;;;9.96;74.42;101461.72;1852276;77;21051;-61
2021/12/06 10:16:52;;;;;;;30.30;10.68;;;;;;;9.97;74.38;101460.37;1852255;77;21117;-61
2021/12/06 10:19:21;;;;;;;29.18;9.95;;;;;;;9.98;74.31;101460.80;1852247;77;21129;-61
2021/12/06 10:21:50;;;;;;;32.35;11.83;;;;;;;9.96;74.26;101456.03;1852110;77;21055;-62
2021/12/06 10:24:22;;;;;;;28.73;9.13;;;;;;;9.89;74.30;101457.09;1852036;76;21063;-62
2021/12/06 10:26:51;;;;;;;33.63;10.65;;;;;;;9.83;74.43;101459.42;1852113;77;21113;-62
2021/12/06 10:29:22;;;;;;;32.67;10.63;;;;;;;9.79;74.59;101463.45;1852135;77;21470;-62
2021/12/06 10:31:54;;;;;;;27.80;9.60;;;;;;;9.78;74.68;101453.86;1852120;77;21113;-62
2021/12/06 10:34:27;;;;;;;31.15;11.12;;;;;;;9.75;74.76;101460.50;1852255;76;21552;-62
2021/12/06 10:36:57;;;;;;;26.27;9.73;;;;;;;9.73;74.80;101451.78;1852321;77;21107;-62
2021/12/06 10:39:26;;;;;;;35.15;11.08;;;;;;;9.77;74.96;101448.17;1852272;77;21330;-62
2021/12/06 10:41:55;;;;;;;33.53;11.95;;;;;;;9.86;74.84;101449.26;1852155;77;21071;-61
2021/12/06 10:44:25;;;;;;;28.00;10.20;;;;;;;9.94;74.82;101455.21;1852163;77;21474;-61
2021/12/06 10:46:55;;;;;;;29.95;10.03;;;;;;;10.02;74.82;101455.88;1852118;77;21112;-62
2021/12/06 10:49:26;;;;;;;33.18;10.53;;;;;;;10.05;74.68;101465.02;1852123;77;21106;-61
2021/12/06 10:51:55;;;;;;;29.27;10.08;;;;;;;10.09;74.61;101464.48;1840377;77;21016;-61
2021/12/06 10:54:38;;;;;;;31.00;10.75;;;;;;;10.11;74.51;101463.13;1852256;77;21134;-61
2021/12/06 10:57:08;;;;;;;33.85;9.75;;;;;;;10.08;74.49;101472.41;1852262;77;21071;-62
2021/12/06 10:59:39;;;;;;;35.30;13.25;;;;;;;10.01;74.57;101470.38;1852183;77;21082;-63
2021/12/06 11:02:11;;;;;;;39.48;15.88;;;;;;;9.94;74.62;101468.37;1852260;77;21043;-63
2021/12/06 11:04:42;;;;;;;42.55;16.00;;;;;;;9.98;74.66;101463.89;1852233;77;21015;-61
2021/12/06 11:07:11;;;;;;;34.38;14.90;;;;;;;10.09;74.62;101463.59;1852352;77;21035;-61
2021/12/06 11:09:43;;;;;;;36.90;15.38;;;;;;;10.16;74.48;101470.44;1852251;77;21066;-61
2021/12/06 11:12:15;;;;;;;40.60;15.50;;;;;;;10.19;74.46;101471.68;1852172;77;21143;-61
2021/12/06 11:14:45;;;;;;;36.88;13.93;;;;;;;10.21;74.47;101465.92;1852202;77;21144;-61
2021/12/06 11:17:19;;;;;;;27.15;11.45;;;;;;;10.24;74.51;101461.91;1852274;77;21552;-61
2021/12/06 11:19:51;;;;;;;39.67;12.80;;;;;;;10.23;74.53;101457.53;1852272;77;21110;-61
2021/12/06 11:22:22;;;;;;;35.78;13.08;;;;;;;10.25;74.49;101454.41;1852246;77;21043;-61
2021/12/06 11:24:54;;;;;;;31.68;11.50;;;;;;;10.28;74.36;101450.39;1851691;77;21478;-61
2021/12/06 11:27:26;;;;;;;45.70;12.00;;;;;;;10.31;74.30;101454.30;1852212;77;21153;-63
2021/12/06 11:30:04;;;;;;;32.83;10.65;;;;;;;10.30;74.31;101443.77;1852217;77;21106;-65
2021/12/06 11:32:35;;;;;;;30.52;10.68;;;;;;;10.29;74.34;101440.71;1851349;76;21536;-62
2021/12/06 11:35:20;;;;;;;30.82;12.90;;;;;;;10.27;74.45;101442.06;1849291;77;21122;-64
2021/12/06 11:37:51;;;;;;;31.75;12.47;;;;;;;10.25;74.50;101433.34;1851943;77;21047;-65
2021/12/06 11:40:29;;;;;;;34.38;10.43;;;;;;;10.24;74.53;101429.86;1852248;77;21446;-62
2021/12/06 11:43:10;;;;;;;24.72;9.70;;;;;;;10.20;74.66;101431.31;1837487;77;21074;-60
2021/12/06 11:45:57;;;;;;;17.17;7.35;;;;;;;10.14;74.84;101436.72;1850339;77;21461;-60